KRSW/RSW METAR and TAF weather

Enter ICAO airport designator
Station Type Date Time Source
KRSW METAR 2021/04/13 07:53 UTC NOAA

KRSW 130753Z AUTO 00000KT 10SM CLR 17/15 A2996 RMK AO2 SLP144 T01720150


Station Type Date Time Source
KRSW Decoded METAR 2021/04/13 07:53 UTC NOAA

FORT MYERS SW FL INTERNATIONAL AIRPORT , FL, United States (KRSW) 26-32N 081-46W 9M
Apr 13, 2021 - 03:53 AM EDT / 2021.04.13 0753 UTC
Wind: Calm:0
Visibility: 10 mile(s):0
Sky conditions: clear
Temperature: 63.0 F (17.2 C)
Dew Point: 59.0 F (15.0 C)
Relative Humidity: 86%
Pressure (altimeter): 29.96 in. Hg (1014 hPa)
ob: KRSW 130753Z AUTO 00000KT 10SM CLR 17/15 A2996 RMK AO2 SLP144 T01720150
cycle: 8

Station Type Date Time Source
KRSW TAF 2021/04/13 06:22 UTC NOAA

TAF KRSW 130520Z 1306/1406 VRB04KT P6SM SKC
FM131400 08008KT P6SM FEW250
FM132000 27010KT P6SM FEW250
FM140200 VRB03KT P6SM FEW250

Example: see airport list